Time;durP1;ratioP1;P1;durP2;ratioP2;P2;SDS_P1;SDS_P2;PMS_P1;PMS_P2;Temp;Humidity;BMP_temperature;BMP_pressure;BME280_temperature;BME280_humidity;BME280_pressure;Samples;Min_cycle;Max_cycle;Signal;HPM_P1;HPM_P2
2021/09/20 00:01:32;;;;;;;3.17;2.80;;;14.20;99.90;;;;;;1816546;77;21094;-78
2021/09/20 00:03:59;;;;;;;4.60;3.30;;;14.20;99.90;;;;;;1812611;77;21168;-78
2021/09/20 00:06:25;;;;;;;2.95;2.75;;;14.20;99.90;;;;;;1818161;77;21094;-79
2021/09/20 00:08:51;;;;;;;3.15;2.87;;;14.20;99.90;;;;;;1812878;77;21192;-78
2021/09/20 00:11:17;;;;;;;3.65;2.85;;;14.20;99.90;;;;;;1805274;78;21099;-80
2021/09/20 00:13:43;;;;;;;4.33;3.02;;;14.20;99.90;;;;;;1800980;77;21156;-78
2021/09/20 00:16:09;;;;;;;2.80;2.60;;;14.20;99.90;;;;;;1811859;77;21139;-78
2021/09/20 00:18:35;;;;;;;3.77;3.02;;;14.20;99.90;;;;;;1817318;77;21098;-78
2021/09/20 00:21:01;;;;;;;3.77;3.00;;;14.20;99.90;;;;;;1811916;77;21163;-78
2021/09/20 00:23:29;;;;;;;3.95;2.62;;;14.20;99.90;;;;;;1811789;77;21510;-77
2021/09/20 00:25:57;;;;;;;4.80;3.22;;;14.20;99.90;;;;;;1817959;77;21474;-78
2021/09/20 00:28:23;;;;;;;2.65;2.45;;;14.20;99.90;;;;;;1805353;77;21091;-78
2021/09/20 00:30:49;;;;;;;3.47;3.12;;;14.20;99.90;;;;;;1797106;79;21167;-78
2021/09/20 00:33:15;;;;;;;3.10;2.80;;;14.20;99.90;;;;;;1803009;79;21184;-77
2021/09/20 00:35:41;;;;;;;3.65;3.22;;;14.20;99.90;;;;;;1814269;77;21071;-78
2021/09/20 00:38:07;;;;;;;6.12;3.00;;;14.20;99.90;;;;;;1816811;77;21498;-77
2021/09/20 00:40:33;;;;;;;5.58;3.42;;;14.20;99.90;;;;;;1817890;77;21505;-78
2021/09/20 00:42:59;;;;;;;4.28;3.33;;;14.10;99.90;;;;;;1818026;77;21731;-78
2021/09/20 00:45:28;;;;;;;3.30;3.00;;;14.10;99.90;;;;;;1813389;77;21454;-78
2021/09/20 00:47:53;;;;;;;3.52;3.12;;;14.20;99.90;;;;;;1816161;77;21159;-79
2021/09/20 00:50:19;;;;;;;3.17;2.87;;;14.20;99.90;;;;;;1792320;78;21512;-77
2021/09/20 00:52:46;;;;;;;3.37;3.08;;;14.20;99.90;;;;;;1811854;77;21298;-77
2021/09/20 00:55:12;;;;;;;5.62;3.25;;;14.20;99.90;;;;;;1812676;77;21206;-78
2021/09/20 00:57:38;;;;;;;5.72;3.67;;;14.10;99.90;;;;;;1799936;79;21204;-78
2021/09/20 01:00:04;;;;;;;3.22;2.92;;;14.30;99.90;;;;;;1808375;77;21110;-79
2021/09/20 01:02:30;;;;;;;5.08;3.33;;;14.20;99.90;;;;;;1818361;77;21087;-78
2021/09/20 01:04:56;;;;;;;3.33;3.02;;;14.20;99.90;;;;;;1813181;77;21570;-78
2021/09/20 01:07:22;;;;;;;3.70;2.58;;;14.20;99.90;;;;;;1806254;79;21584;-79
2021/09/20 01:09:49;;;;;;;3.08;2.87;;;14.20;99.90;;;;;;1813296;77;21556;-78
2021/09/20 01:12:15;;;;;;;2.87;2.67;;;14.20;99.90;;;;;;1818089;77;21102;-78
2021/09/20 01:14:41;;;;;;;3.87;2.92;;;14.20;99.90;;;;;;1812691;77;21086;-78
2021/09/20 01:17:07;;;;;;;7.25;3.08;;;14.10;99.90;;;;;;1812135;77;21075;-78
2021/09/20 01:19:33;;;;;;;3.62;3.25;;;14.20;99.90;;;;;;1818004;77;21067;-78
2021/09/20 01:21:59;;;;;;;4.22;2.75;;;14.10;99.90;;;;;;1812910;77;21171;-78
2021/09/20 01:24:26;;;;;;;2.52;2.33;;;14.10;99.90;;;;;;1810029;77;21090;-78
2021/09/20 01:26:52;;;;;;;3.47;3.10;;;14.10;99.90;;;;;;1808621;77;21175;-78
2021/09/20 01:29:18;;;;;;;4.35;3.00;;;14.10;99.90;;;;;;1803438;79;21071;-78
2021/09/20 01:31:44;;;;;;;3.50;2.95;;;14.10;99.90;;;;;;1810055;77;21176;-78
2021/09/20 01:34:10;;;;;;;3.87;3.47;;;14.10;99.90;;;;;;1812327;77;21121;-78
2021/09/20 01:36:38;;;;;;;4.45;3.10;;;14.10;99.90;;;;;;1806194;77;21184;-78
2021/09/20 01:39:04;;;;;;;3.75;3.35;;;14.00;99.90;;;;;;1809362;77;21467;-78
2021/09/20 01:41:30;;;;;;;3.95;3.47;;;14.10;99.90;;;;;;1799409;78;21542;-78
2021/09/20 01:43:56;;;;;;;5.30;3.77;;;14.10;99.90;;;;;;1815262;77;21094;-78
2021/09/20 01:46:22;;;;;;;3.72;3.20;;;14.10;99.90;;;;;;1818003;77;21101;-78
2021/09/20 01:48:48;;;;;;;3.52;3.22;;;14.20;99.90;;;;;;1812746;77;21093;-78
2021/09/20 01:51:16;;;;;;;3.55;2.98;;;14.20;99.90;;;;;;1818043;77;21098;-78
2021/09/20 01:53:42;;;;;;;5.00;3.35;;;14.20;99.90;;;;;;1802123;77;21611;-78
2021/09/20 01:56:08;;;;;;;3.42;3.08;;;14.20;99.90;;;;;;1806025;77;21075;-78
2021/09/20 01:58:35;;;;;;;3.25;2.95;;;14.20;99.90;;;;;;1818032;77;21098;-78
2021/09/20 02:01:01;;;;;;;5.62;2.98;;;14.20;99.90;;;;;;1806445;77;21082;-78
2021/09/20 02:03:27;;;;;;;3.25;2.95;;;14.20;99.90;;;;;;1807572;77;21106;-77
2021/09/20 02:05:53;;;;;;;5.45;3.27;;;14.20;99.90;;;;;;1806567;77;21160;-79
2021/09/20 02:08:19;;;;;;;13.35;3.17;;;14.10;99.90;;;;;;1817920;77;21172;-78
2021/09/20 02:10:45;;;;;;;6.12;3.12;;;14.00;99.90;;;;;;1817505;77;21101;-78
2021/09/20 02:13:11;;;;;;;3.50;3.20;;;13.80;99.90;;;;;;1808041;77;21219;-78
2021/09/20 02:15:39;;;;;;;7.03;3.58;;;13.80;99.90;;;;;;1817997;77;21225;-78
2021/09/20 02:18:05;;;;;;;3.60;3.20;;;13.80;99.90;;;;;;1817924;77;21130;-78
2021/09/20 02:20:31;;;;;;;4.37;3.05;;;13.90;99.90;;;;;;1817912;77;21090;-78
2021/09/20 02:23:00;;;;;;;3.90;3.05;;;14.00;99.90;;;;;;1807018;77;22606;-77
2021/09/20 02:25:25;;;;;;;7.12;2.83;;;14.10;99.90;;;;;;1806194;77;21556;-78
2021/09/20 02:27:51;;;;;;;3.50;3.20;;;14.10;99.90;;;;;;1817920;77;21513;-78
2021/09/20 02:30:18;;;;;;;2.80;2.60;;;14.10;99.90;;;;;;1807803;77;21505;-79
2021/09/20 02:32:44;;;;;;;4.53;3.42;;;14.10;99.90;;;;;;1804596;77;21188;-77
2021/09/20 02:35:10;;;;;;;3.15;2.70;;;14.00;99.90;;;;;;1818079;77;21210;-77
2021/09/20 02:37:36;;;;;;;3.98;2.90;;;14.00;99.90;;;;;;1807760;77;21246;-79
2021/09/20 02:40:02;;;;;;;3.45;3.15;;;14.00;99.90;;;;;;1812755;77;21201;-78
2021/09/20 02:42:29;;;;;;;3.98;3.12;;;14.00;99.90;;;;;;1807059;77;21109;-77
2021/09/20 02:44:55;;;;;;;3.55;2.85;;;14.00;99.90;;;;;;1812918;77;21478;-78
2021/09/20 02:47:21;;;;;;;4.33;3.08;;;14.00;99.90;;;;;;1811759;77;21513;-78
2021/09/20 02:49:49;;;;;;;3.72;3.20;;;14.00;99.90;;;;;;1818033;77;21498;-79
2021/09/20 02:52:15;;;;;;;4.67;3.10;;;13.90;99.90;;;;;;1811171;77;21118;-79
2021/09/20 02:54:41;;;;;;;4.65;3.50;;;13.90;99.90;;;;;;1808487;77;21189;-79
2021/09/20 02:57:07;;;;;;;6.12;3.90;;;13.90;99.90;;;;;;1803401;79;21106;-79
2021/09/20 02:59:33;;;;;;;4.30;3.92;;;13.80;99.90;;;;;;1814026;77;21460;-79
2021/09/20 03:01:59;;;;;;;4.97;3.72;;;13.80;99.90;;;;;;1806181;77;21074;-77
2021/09/20 03:04:25;;;;;;;3.77;3.33;;;13.80;99.90;;;;;;1814939;77;21098;-78
2021/09/20 03:06:52;;;;;;;4.37;3.90;;;13.80;99.90;;;;;;1807865;77;21097;-78
2021/09/20 03:09:18;;;;;;;7.80;3.27;;;13.90;99.90;;;;;;1795345;78;21166;-78
2021/09/20 03:11:44;;;;;;;3.95;3.30;;;13.90;99.90;;;;;;1816390;77;21070;-78
2021/09/20 03:14:10;;;;;;;3.98;3.50;;;13.90;99.90;;;;;;1806536;77;21226;-78
2021/09/20 03:16:36;;;;;;;4.40;3.47;;;13.90;99.90;;;;;;1800356;79;21086;-79
2021/09/20 03:19:02;;;;;;;6.05;3.00;;;13.90;99.90;;;;;;1805841;78;21181;-78
2021/09/20 03:21:28;;;;;;;3.95;3.22;;;13.90;99.90;;;;;;1811668;77;21217;-78
2021/09/20 03:23:54;;;;;;;3.55;3.25;;;13.80;99.90;;;;;;1807142;77;21097;-78
2021/09/20 03:26:21;;;;;;;3.35;3.05;;;13.80;99.90;;;;;;1805201;77;21250;-78
2021/09/20 03:28:47;;;;;;;4.90;3.50;;;13.90;99.90;;;;;;1812995;78;21167;-78
2021/09/20 03:31:13;;;;;;;5.22;3.55;;;13.80;99.90;;;;;;1816820;77;21501;-79
2021/09/20 03:33:39;;;;;;;4.28;2.90;;;13.80;99.90;;;;;;1807502;77;21495;-79
2021/09/20 03:36:05;;;;;;;3.67;2.80;;;13.70;99.90;;;;;;1807719;78;21751;-79
2021/09/20 03:38:31;;;;;;;3.72;3.30;;;13.70;99.90;;;;;;1816545;77;21185;-78
2021/09/20 03:40:57;;;;;;;3.60;3.12;;;13.70;99.90;;;;;;1813761;77;21518;-78
2021/09/20 03:43:24;;;;;;;4.35;3.50;;;13.60;99.90;;;;;;1810786;78;21067;-79
2021/09/20 03:45:50;;;;;;;4.00;3.10;;;13.70;99.90;;;;;;1801642;78;21180;-78
2021/09/20 03:48:16;;;;;;;3.40;3.10;;;13.60;99.90;;;;;;1810540;78;21160;-79
2021/09/20 03:50:42;;;;;;;6.80;3.62;;;13.70;99.90;;;;;;1814351;77;21102;-78
2021/09/20 03:53:08;;;;;;;3.60;3.30;;;13.60;99.90;;;;;;1817950;77;21067;-78
2021/09/20 03:55:34;;;;;;;4.10;3.72;;;13.60;99.90;;;;;;1807589;77;21172;-78
2021/09/20 03:58:00;;;;;;;4.53;3.92;;;13.60;99.90;;;;;;1812623;77;21170;-78
2021/09/20 04:00:26;;;;;;;4.25;3.85;;;13.60;99.90;;;;;;1798123;79;21198;-79
2021/09/20 04:02:53;;;;;;;7.22;3.87;;;13.60;99.90;;;;;;1804874;77;21071;-78
2021/09/20 04:05:20;;;;;;;6.97;3.72;;;13.60;99.90;;;;;;1815303;77;21089;-78
2021/09/20 04:07:46;;;;;;;4.37;3.60;;;13.60;99.90;;;;;;1798821;77;21098;-78
2021/09/20 04:10:15;;;;;;;4.25;3.62;;;13.60;99.90;;;;;;1797753;79;21099;-78
2021/09/20 04:12:40;;;;;;;3.85;3.40;;;13.60;99.90;;;;;;1800277;77;21141;-77
2021/09/20 04:15:06;;;;;;;3.55;3.27;;;13.50;99.90;;;;;;1810715;77;21094;-78
2021/09/20 04:17:33;;;;;;;6.20;3.90;;;13.60;99.90;;;;;;1818019;77;21293;-78
2021/09/20 04:19:59;;;;;;;4.37;3.50;;;13.60;99.90;;;;;;1806570;77;21232;-78
2021/09/20 04:22:25;;;;;;;7.35;3.92;;;13.60;99.90;;;;;;1806549;77;21171;-78
2021/09/20 04:24:51;;;;;;;8.10;3.70;;;13.60;99.90;;;;;;1807670;77;21102;-77
2021/09/20 04:27:19;;;;;;;5.40;3.87;;;13.60;99.90;;;;;;1817926;77;21090;-78
2021/09/20 04:29:45;;;;;;;6.35;3.58;;;13.60;99.90;;;;;;1811639;77;21131;-79
2021/09/20 04:32:11;;;;;;;4.40;3.33;;;13.60;99.90;;;;;;1804850;77;21169;-79
2021/09/20 04:34:37;;;;;;;5.33;3.42;;;13.70;99.90;;;;;;1808377;77;21089;-78
2021/09/20 04:37:05;;;;;;;3.62;3.33;;;13.60;99.90;;;;;;1806487;77;21098;-78
2021/09/20 04:39:31;;;;;;;4.10;3.72;;;13.60;99.90;;;;;;1807536;77;21153;-78
2021/09/20 04:41:57;;;;;;;20.08;4.15;;;13.60;99.90;;;;;;1807079;77;21180;-78
2021/09/20 04:44:23;;;;;;;5.42;3.85;;;13.60;99.90;;;;;;1799347;78;21160;-78
2021/09/20 04:46:50;;;;;;;4.12;3.60;;;13.60;99.90;;;;;;1801545;77;21168;-78
2021/09/20 04:49:18;;;;;;;4.10;3.70;;;13.60;99.90;;;;;;1805410;77;21176;-78
2021/09/20 04:51:46;;;;;;;6.45;4.20;;;13.60;99.90;;;;;;1817998;77;21070;-78
2021/09/20 04:54:13;;;;;;;5.90;3.80;;;13.60;99.90;;;;;;1817810;77;21123;-77
2021/09/20 04:56:41;;;;;;;4.53;4.12;;;13.60;99.90;;;;;;1811802;77;21151;-78
2021/09/20 04:59:08;;;;;;;5.90;3.98;;;13.60;99.90;;;;;;1808318;77;21146;-77
2021/09/20 05:01:35;;;;;;;5.50;4.12;;;13.50;99.90;;;;;;1810325;77;21071;-77
2021/09/20 05:04:01;;;;;;;6.92;4.65;;;13.50;99.90;;;;;;1812039;77;21132;-76
2021/09/20 05:06:27;;;;;;;4.55;3.17;;;13.50;99.90;;;;;;1806138;77;21171;-77
2021/09/20 05:08:53;;;;;;;5.85;3.65;;;13.50;99.90;;;;;;1800629;77;21075;-77
2021/09/20 05:11:19;;;;;;;5.70;4.40;;;13.50;99.90;;;;;;1800877;77;21105;-77
2021/09/20 05:13:45;;;;;;;5.05;4.42;;;13.50;99.90;;;;;;1807480;77;21176;-76
2021/09/20 05:16:11;;;;;;;4.55;3.60;;;13.60;99.90;;;;;;1808633;77;21169;-77
2021/09/20 05:18:37;;;;;;;5.87;4.20;;;13.60;99.90;;;;;;1810440;77;21090;-77
2021/09/20 05:21:04;;;;;;;5.25;3.87;;;13.60;99.90;;;;;;1796407;79;21163;-77
2021/09/20 05:23:30;;;;;;;7.00;4.12;;;13.60;99.90;;;;;;1805889;77;21218;-76
2021/09/20 05:25:56;;;;;;;4.72;4.10;;;13.60;99.90;;;;;;1801349;77;21171;-77
2021/09/20 05:28:22;;;;;;;4.90;4.08;;;13.60;99.90;;;;;;1806447;79;21156;-76
2021/09/20 05:30:48;;;;;;;5.03;4.50;;;13.60;99.90;;;;;;1817869;77;21094;-77
2021/09/20 05:33:16;;;;;;;5.83;4.25;;;13.60;99.90;;;;;;1806464;77;21167;-76
2021/09/20 05:35:43;;;;;;;6.37;4.53;;;13.60;99.90;;;;;;1817783;77;21519;-75
2021/09/20 05:38:09;;;;;;;5.85;4.53;;;13.60;99.90;;;;;;1817887;77;21109;-74
2021/09/20 05:40:35;;;;;;;8.18;4.05;;;13.70;99.90;;;;;;1811589;77;21101;-74
2021/09/20 05:43:02;;;;;;;5.60;4.00;;;13.70;99.90;;;;;;1811938;77;21093;-74
2021/09/20 05:45:28;;;;;;;7.65;3.90;;;13.70;99.90;;;;;;1805925;77;21098;-74
2021/09/20 05:47:54;;;;;;;4.35;3.95;;;13.80;99.90;;;;;;1803634;77;21069;-76
2021/09/20 05:50:20;;;;;;;5.97;3.95;;;13.80;99.90;;;;;;1817813;77;21228;-78
2021/09/20 05:52:46;;;;;;;6.08;4.05;;;13.90;99.90;;;;;;1814268;77;21083;-78
2021/09/20 05:55:12;;;;;;;4.70;3.70;;;13.90;99.90;;;;;;1806601;77;21107;-77
2021/09/20 05:57:38;;;;;;;5.85;3.90;;;13.90;99.90;;;;;;1804295;77;21086;-78
2021/09/20 06:00:04;;;;;;;5.00;3.90;;;14.00;99.90;;;;;;1811524;77;21156;-77
2021/09/20 06:02:31;;;;;;;4.15;3.75;;;14.10;99.90;;;;;;1817867;77;21117;-77
2021/09/20 06:04:57;;;;;;;4.75;3.75;;;14.10;99.90;;;;;;1812693;77;21254;-78
2021/09/20 06:07:23;;;;;;;4.00;3.65;;;14.10;99.90;;;;;;1807142;77;21097;-77
2021/09/20 06:09:49;;;;;;;5.67;3.80;;;14.10;99.90;;;;;;1806485;77;21155;-77
2021/09/20 06:12:15;;;;;;;5.37;4.00;;;14.20;99.90;;;;;;1804772;77;21097;-75
2021/09/20 06:14:41;;;;;;;4.33;3.92;;;14.20;99.90;;;;;;1817635;77;21235;-77
2021/09/20 06:17:07;;;;;;;4.60;4.20;;;14.20;99.90;;;;;;1817963;77;21187;-77
2021/09/20 06:19:34;;;;;;;4.87;3.67;;;14.20;99.90;;;;;;1806564;77;21237;-77
2021/09/20 06:22:00;;;;;;;7.42;4.60;;;14.20;99.90;;;;;;1817942;77;21183;-78
2021/09/20 06:24:26;;;;;;;6.20;3.83;;;14.30;99.90;;;;;;1799460;77;21478;-77
2021/09/20 06:26:52;;;;;;;8.00;4.53;;;14.30;99.90;;;;;;1811523;77;21506;-77
2021/09/20 06:29:18;;;;;;;8.33;4.42;;;14.30;99.90;;;;;;1800430;79;21491;-77
2021/09/20 06:31:44;;;;;;;5.60;3.65;;;14.40;99.90;;;;;;1805296;79;21222;-78
2021/09/20 06:34:10;;;;;;;6.67;3.70;;;14.50;99.90;;;;;;1813413;77;21141;-78
2021/09/20 06:36:37;;;;;;;4.92;4.40;;;14.50;99.90;;;;;;1806066;79;21094;-79
2021/09/20 06:39:03;;;;;;;5.75;4.08;;;14.60;99.90;;;;;;1813972;77;21117;-77
2021/09/20 06:41:30;;;;;;;5.70;4.10;;;14.50;99.90;;;;;;1817989;77;21075;-78
2021/09/20 06:43:56;;;;;;;4.50;3.77;;;14.50;99.90;;;;;;1805169;77;21159;-78
2021/09/20 06:46:23;;;;;;;8.93;4.92;;;14.70;99.90;;;;;;1801496;77;21102;-78
2021/09/20 06:48:50;;;;;;;4.65;4.25;;;14.80;99.90;;;;;;1801592;78;21102;-77
2021/09/20 06:51:16;;;;;;;10.38;4.90;;;14.80;99.90;;;;;;1803988;79;21102;-78
2021/09/20 06:53:42;;;;;;;8.90;5.17;;;14.90;99.90;;;;;;1812509;77;21272;-79
2021/09/20 06:56:08;;;;;;;5.83;4.35;;;14.90;99.90;;;;;;1809557;77;21184;-78
2021/09/20 06:58:35;;;;;;;5.28;4.67;;;14.90;99.90;;;;;;1803332;77;21094;-78
2021/09/20 07:01:01;;;;;;;9.83;5.05;;;14.80;99.90;;;;;;1807650;77;21108;-78
2021/09/20 07:03:27;;;;;;;6.72;4.50;;;14.80;99.90;;;;;;1806887;77;21070;-78
2021/09/20 07:05:53;;;;;;;8.73;5.10;;;15.00;99.90;;;;;;1811601;77;21071;-76
2021/09/20 07:08:20;;;;;;;6.78;5.62;;;14.80;99.90;;;;;;1812985;77;21086;-77
2021/09/20 07:10:47;;;;;;;10.00;5.53;;;14.70;99.90;;;;;;1818028;77;21139;-75
2021/09/20 07:13:13;;;;;;;6.28;4.92;;;14.60;99.90;;;;;;1807106;77;21095;-73
2021/09/20 07:15:39;;;;;;;7.70;4.97;;;14.80;99.90;;;;;;1812417;77;21109;-73
2021/09/20 07:18:06;;;;;;;8.25;5.87;;;14.90;99.90;;;;;;1806165;79;21334;-74
2021/09/20 07:20:32;;;;;;;8.88;5.33;;;14.90;99.90;;;;;;1807358;79;21181;-73
2021/09/20 07:22:58;;;;;;;7.33;5.28;;;15.00;99.90;;;;;;1818637;77;21584;-74
2021/09/20 07:25:24;;;;;;;6.62;5.28;;;15.10;99.90;;;;;;1813799;77;21446;-73
2021/09/20 07:27:50;;;;;;;6.42;4.78;;;15.10;99.90;;;;;;1813599;77;21583;-75
2021/09/20 07:30:18;;;;;;;9.10;5.58;;;15.30;99.90;;;;;;1807779;78;21110;-75
2021/09/20 07:32:44;;;;;;;7.97;5.65;;;15.50;99.90;;;;;;1817869;77;21514;-74
2021/09/20 07:35:10;;;;;;;9.00;5.05;;;15.60;99.90;;;;;;1801809;77;21560;-74
2021/09/20 07:37:37;;;;;;;13.30;5.30;;;15.70;99.90;;;;;;1817747;77;21105;-73
2021/09/20 07:40:03;;;;;;;7.78;5.60;;;15.80;99.90;;;;;;1813236;78;21106;-74
2021/09/20 07:42:29;;;;;;;7.28;5.50;;;15.90;99.90;;;;;;1800942;78;21089;-75
2021/09/20 07:44:55;;;;;;;6.92;5.30;;;16.00;99.90;;;;;;1813358;77;21098;-75
2021/09/20 07:47:21;;;;;;;9.35;5.20;;;16.00;99.90;;;;;;1801892;77;21095;-75
2021/09/20 07:49:47;;;;;;;7.17;5.33;;;16.00;99.90;;;;;;1813322;77;21101;-74
2021/09/20 07:52:13;;;;;;;8.40;5.78;;;16.00;99.90;;;;;;1816701;77;21176;-73
2021/09/20 07:54:39;;;;;;;6.67;5.95;;;15.80;99.90;;;;;;1813272;77;21106;-74
2021/09/20 07:57:08;;;;;;;6.47;5.05;;;15.80;99.90;;;;;;1808167;77;21196;-73
2021/09/20 07:59:33;;;;;;;6.60;5.67;;;16.00;99.90;;;;;;1806796;77;21181;-75
2021/09/20 08:01:59;;;;;;;8.08;5.85;;;15.80;99.90;;;;;;1811591;77;21098;-75
2021/09/20 08:04:26;;;;;;;9.40;6.40;;;15.80;99.90;;;;;;1810236;77;21094;-74
2021/09/20 08:06:52;;;;;;;6.90;5.53;;;16.00;99.90;;;;;;1812387;77;21091;-74
2021/09/20 08:09:18;;;;;;;7.40;6.20;;;16.20;99.90;;;;;;1801097;79;21176;-73
2021/09/20 08:11:47;;;;;;;8.85;5.85;;;16.30;99.90;;;;;;1806416;79;21102;-72
2021/09/20 08:14:13;;;;;;;7.30;5.92;;;16.30;99.90;;;;;;1805644;79;21568;-73
2021/09/20 08:16:39;;;;;;;11.28;6.40;;;16.20;99.90;;;;;;1818686;77;21482;-75
2021/09/20 08:19:05;;;;;;;9.88;6.60;;;16.00;99.90;;;;;;1818640;77;21467;-76
2021/09/20 08:21:31;;;;;;;8.00;5.67;;;16.00;99.90;;;;;;1812305;77;21544;-74
2021/09/20 08:23:57;;;;;;;7.15;5.87;;;16.10;99.90;;;;;;1812417;77;21232;-76
2021/09/20 08:26:23;;;;;;;11.75;6.00;;;16.00;99.90;;;;;;1806345;77;21094;-76
2021/09/20 08:28:50;;;;;;;10.85;5.95;;;16.00;99.90;;;;;;1808277;77;21162;-76
2021/09/20 08:31:16;;;;;;;8.13;6.45;;;15.90;99.90;;;;;;1813451;79;21082;-75
2021/09/20 08:33:42;;;;;;;8.58;6.17;;;15.80;99.90;;;;;;1818605;77;21180;-76
2021/09/20 08:36:10;;;;;;;7.92;5.85;;;15.90;99.90;;;;;;1811713;77;21170;-76
2021/09/20 08:38:36;;;;;;;7.78;5.85;;;15.90;99.90;;;;;;1802254;78;21156;-74
2021/09/20 08:41:02;;;;;;;9.53;6.42;;;16.30;99.90;;;;;;1806628;77;21097;-76
2021/09/20 08:43:28;;;;;;;8.03;5.83;;;16.50;99.90;;;;;;1804614;77;21258;-75
2021/09/20 08:45:54;;;;;;;7.28;5.97;;;16.50;99.90;;;;;;1813881;77;21094;-75
2021/09/20 08:48:20;;;;;;;6.40;5.75;;;16.60;99.90;;;;;;1795612;79;21151;-75
2021/09/20 08:50:46;;;;;;;10.90;7.22;;;16.50;99.90;;;;;;1802261;77;21102;-74
2021/09/20 08:53:12;;;;;;;8.85;6.85;;;16.70;99.90;;;;;;1816091;77;21098;-75
2021/09/20 08:55:39;;;;;;;7.83;5.47;;;16.80;99.90;;;;;;1805736;77;21087;-75
2021/09/20 08:58:05;;;;;;;9.58;6.62;;;16.90;99.90;;;;;;1810384;77;21074;-73
2021/09/20 09:00:31;;;;;;;9.13;6.17;;;16.70;99.90;;;;;;1815904;77;21098;-75
2021/09/20 09:02:59;;;;;;;6.97;6.28;;;16.60;99.90;;;;;;1806918;77;21168;-75
2021/09/20 09:05:25;;;;;;;9.78;6.42;;;16.70;99.90;;;;;;1806754;77;21179;-74
2021/09/20 09:07:51;;;;;;;7.62;6.45;;;16.90;99.90;;;;;;1815611;77;21109;-76
2021/09/20 09:10:17;;;;;;;9.58;6.15;;;16.80;99.90;;;;;;1811794;77;21165;-75
2021/09/20 09:12:43;;;;;;;7.33;6.42;;;17.10;99.90;;;;;;1797384;79;21297;-74
2021/09/20 09:15:09;;;;;;;9.68;6.72;;;17.00;99.90;;;;;;1804277;79;21176;-74
2021/09/20 09:17:35;;;;;;;8.40;6.67;;;16.90;99.90;;;;;;1818678;77;21074;-75
2021/09/20 09:20:02;;;;;;;7.55;5.87;;;16.80;99.90;;;;;;1811823;77;22643;-74
2021/09/20 09:22:28;;;;;;;9.25;6.12;;;16.90;99.90;;;;;;1807285;77;21140;-73
2021/09/20 09:24:54;;;;;;;6.85;5.53;;;16.80;99.90;;;;;;1805611;77;21167;-75
2021/09/20 09:27:20;;;;;;;7.97;6.30;;;16.80;99.90;;;;;;1804509;77;21075;-74
2021/09/20 09:29:46;;;;;;;8.55;6.50;;;16.90;99.90;;;;;;1807760;78;21172;-75
2021/09/20 09:32:12;;;;;;;6.47;5.87;;;16.70;99.90;;;;;;1817848;77;21153;-75
2021/09/20 09:34:42;;;;;;;7.45;6.05;;;16.60;99.90;;;;;;1807792;77;21141;-81
2021/09/20 09:37:06;;;;;;;8.25;6.42;;;16.40;99.90;;;;;;1808449;77;21119;-83
2021/09/20 09:39:32;;;;;;;7.92;5.70;;;16.40;99.90;;;;;;1811679;77;21184;-80
2021/09/20 09:41:58;;;;;;;11.70;6.83;;;16.30;99.90;;;;;;1808272;77;21164;-78
2021/09/20 09:44:25;;;;;;;8.95;6.65;;;16.40;99.90;;;;;;1818312;77;21179;-84
2021/09/20 09:46:51;;;;;;;7.53;6.15;;;16.20;99.90;;;;;;1818385;77;21075;-83
2021/09/20 09:49:17;;;;;;;7.83;6.30;;;16.20;99.90;;;;;;1806862;77;21089;-84
2021/09/20 09:51:43;;;;;;;7.03;5.78;;;16.30;99.90;;;;;;1811986;77;21110;-80
2021/09/20 09:54:09;;;;;;;10.40;6.22;;;16.40;99.90;;;;;;1811759;77;21110;-79
2021/09/20 09:56:35;;;;;;;9.33;6.22;;;16.40;99.90;;;;;;1803847;77;21107;-83
2021/09/20 09:59:01;;;;;;;8.65;6.37;;;16.60;99.90;;;;;;1803534;78;21171;-81
2021/09/20 10:01:27;;;;;;;8.70;6.75;;;16.80;99.90;;;;;;1808839;77;21567;-85
2021/09/20 10:03:54;;;;;;;10.38;6.58;;;16.90;99.90;;;;;;1809031;77;21502;-87
2021/09/20 10:06:20;;;;;;;6.87;6.20;;;16.80;99.90;;;;;;1806894;77;21438;-82
2021/09/20 10:08:46;;;;;;;10.23;6.30;;;16.80;99.90;;;;;;1818262;77;21497;-80
2021/09/20 10:11:12;;;;;;;10.25;6.42;;;17.00;99.90;;;;;;1795796;78;21136;-80
2021/09/20 10:13:38;;;;;;;7.50;6.37;;;16.90;99.90;;;;;;1818017;77;21582;-81
2021/09/20 10:16:09;;;;;;;7.15;6.45;;;17.10;99.90;;;;;;1811976;77;21223;-80
2021/09/20 10:18:33;;;;;;;7.35;6.65;;;17.00;99.90;;;;;;1807516;77;21089;-82
2021/09/20 10:21:00;;;;;;;7.75;6.95;;;17.00;99.90;;;;;;1796045;77;21165;-83
2021/09/20 10:23:26;;;;;;;8.35;6.55;;;16.90;99.90;;;;;;1812918;77;21071;-80
2021/09/20 10:25:53;;;;;;;7.28;6.58;;;16.90;99.90;;;;;;1818709;77;21164;-78
2021/09/20 10:28:19;;;;;;;8.53;6.28;;;17.00;99.90;;;;;;1812537;77;21106;-77
2021/09/20 10:30:46;;;;;;;9.83;6.37;;;17.00;99.90;;;;;;1811039;77;21173;-77
2021/09/20 10:33:13;;;;;;;8.43;6.25;;;16.90;99.90;;;;;;1808471;77;21512;-75
2021/09/20 10:35:39;;;;;;;8.88;6.92;;;17.00;99.90;;;;;;1810776;77;21514;-78
2021/09/20 10:38:07;;;;;;;7.53;6.80;;;16.60;99.90;;;;;;1804673;77;21106;-78
2021/09/20 10:40:33;;;;;;;8.13;6.97;;;16.50;99.90;;;;;;1807760;77;21179;-78
2021/09/20 10:43:03;;;;;;;10.95;6.47;;;16.80;99.90;;;;;;1818539;77;21222;-84
2021/09/20 10:45:27;;;;;;;7.58;6.22;;;17.00;99.90;;;;;;1814748;77;21123;-85
2021/09/20 10:47:53;;;;;;;7.17;5.92;;;17.10;99.90;;;;;;1813536;77;21078;-82
2021/09/20 10:50:19;;;;;;;7.97;5.85;;;17.00;99.90;;;;;;1819848;77;21082;-84
2021/09/20 10:52:45;;;;;;;10.08;7.42;;;17.10;99.90;;;;;;1790689;78;21087;-83
2021/09/20 10:55:11;;;;;;;7.45;6.10;;;17.30;99.90;;;;;;1800480;79;21160;-84
2021/09/20 10:57:37;;;;;;;7.17;6.47;;;17.00;99.90;;;;;;1800598;77;21093;-86
2021/09/20 11:00:05;;;;;;;7.08;6.37;;;17.00;99.90;;;;;;1813911;77;21160;-85
2021/09/20 11:02:33;;;;;;;8.03;6.22;;;17.00;99.90;;;;;;1809036;77;21524;-85
2021/09/20 11:04:59;;;;;;;9.28;7.03;;;17.10;99.90;;;;;;1809257;77;21435;-84
2021/09/20 11:07:25;;;;;;;6.95;6.35;;;17.00;99.90;;;;;;1796816;77;21233;-87
2021/09/20 11:09:51;;;;;;;8.30;6.40;;;17.10;99.90;;;;;;1812935;77;21568;-78
2021/09/20 11:12:19;;;;;;;8.28;6.47;;;17.20;99.90;;;;;;1812865;77;21102;-84
2021/09/20 11:14:45;;;;;;;9.33;7.08;;;17.10;99.90;;;;;;1819235;77;21537;-85
2021/09/20 11:17:11;;;;;;;8.98;6.65;;;17.20;99.90;;;;;;1814192;77;21095;-87
2021/09/20 11:19:38;;;;;;;9.03;6.50;;;17.30;99.90;;;;;;1819731;77;21172;-88
2021/09/20 11:22:09;;;;;;;6.60;6.00;;;17.30;99.90;;;;;;1802680;77;21152;-89
2021/09/20 11:24:34;;;;;;;;;;;17.30;99.90;;;;;;1815807;77;21103;-89
2021/09/20 11:27:00;;;;;;;7.12;6.37;;;17.30;99.90;;;;;;1813477;77;20359;-87
2021/09/20 11:29:26;;;;;;;7.12;6.42;;;17.20;99.90;;;;;;1818551;77;21498;-82
2021/09/20 11:31:52;;;;;;;9.13;6.70;;;17.30;99.90;;;;;;1807045;77;21666;-82
2021/09/20 11:34:18;;;;;;;8.33;6.37;;;17.40;99.90;;;;;;1818365;77;21501;-83
2021/09/20 11:36:45;;;;;;;7.45;6.70;;;17.50;99.90;;;;;;1818306;77;21525;-82
2021/09/20 11:39:12;;;;;;;7.05;5.83;;;17.50;99.90;;;;;;1814382;77;21195;-82
2021/09/20 11:41:40;;;;;;;8.08;6.28;;;17.50;99.90;;;;;;1815085;77;21075;-84
2021/09/20 11:44:06;;;;;;;7.12;6.47;;;17.60;99.90;;;;;;1800593;77;21144;-85
2021/09/20 11:46:32;;;;;;;8.13;6.60;;;17.80;99.90;;;;;;1813238;77;21168;-84
2021/09/20 11:49:01;;;;;;;6.97;6.05;;;17.90;99.90;;;;;;1818205;77;21168;-86
2021/09/20 11:51:29;;;;;;;6.37;5.35;;;18.20;99.90;;;;;;1801007;77;21513;-85
2021/09/20 11:53:59;;;;;;;8.15;6.08;;;18.60;99.90;;;;;;1818242;77;21165;-87
2021/09/20 11:56:23;;;;;;;8.45;5.85;;;19.00;99.90;;;;;;1795593;77;21221;-86
2021/09/20 11:58:49;;;;;;;7.33;5.92;;;18.60;99.90;;;;;;1798067;78;21097;-87
2021/09/20 12:01:22;;;;;;;5.45;4.90;;;18.70;99.90;;;;;;1810470;77;21165;-87
2021/09/20 12:03:44;;;;;;;6.80;5.03;;;18.80;99.90;;;;;;1798942;78;21102;-85
2021/09/20 12:06:17;;;;;;;7.85;5.50;;;18.70;99.90;;;;;;1804088;77;21437;-86
2021/09/20 12:08:44;;;;;;;5.72;5.20;;;18.50;99.90;;;;;;1809514;77;21081;-87
2021/09/20 12:11:25;;;;;;;6.37;5.35;;;18.60;99.90;;;;;;1801764;77;21098;-86
2021/09/20 12:13:38;;;;;;;;;;;18.40;99.90;;;;;;1813331;77;21224;-82
2021/09/20 12:16:07;;;;;;;10.98;5.80;;;18.40;99.90;;;;;;1818359;77;20394;-83
2021/09/20 12:18:33;;;;;;;5.95;5.35;;;18.40;99.90;;;;;;1817248;77;21087;-82
2021/09/20 12:21:00;;;;;;;5.83;5.25;;;18.50;99.90;;;;;;1802263;77;21157;-81
2021/09/20 12:23:26;;;;;;;6.55;5.50;;;18.40;99.90;;;;;;1813097;77;21094;-83
2021/09/20 12:25:53;;;;;;;7.85;6.00;;;18.20;99.90;;;;;;1818823;77;21130;-83
2021/09/20 12:28:20;;;;;;;5.87;4.60;;;18.20;99.90;;;;;;1806934;77;21143;-84
2021/09/20 12:30:46;;;;;;;6.08;5.47;;;18.30;99.90;;;;;;1812302;77;21083;-84
2021/09/20 12:33:12;;;;;;;5.62;4.83;;;18.30;99.90;;;;;;1813136;77;21215;-84
2021/09/20 12:35:38;;;;;;;5.67;5.17;;;18.40;99.90;;;;;;1813044;77;21086;-84
2021/09/20 12:38:04;;;;;;;6.53;5.10;;;18.20;99.90;;;;;;1815141;77;21175;-85
2021/09/20 12:40:30;;;;;;;5.20;4.70;;;17.90;99.90;;;;;;1800132;77;21085;-84
2021/09/20 12:42:56;;;;;;;5.78;4.50;;;18.20;99.90;;;;;;1818432;77;21168;-84